CPA123 VLVT-VTBD
Flight info
| Callsign | CPA123 |
|---|---|
| Flight time | 0h 51m |
| Altitude | 24000 |
| Route | CHU1A CMP ALBOS NAKO3A |
| Aircraft | B738/L-V/N |
Departure
| Time | 2026-04-26 08:23 |
|---|---|
| Airport | Wattay International Airport (VLVT) |
Arrival
| Time | 2026-04-26 09:14 |
|---|---|
| Airport | Don Mueang International Airport (VTBD) |
| Time | Latitude | Longitude | Altitude | Speed | Heading |
|---|---|---|---|---|---|
| 2026-04-26 08:12 | 17.97668 | 102.56838 | 559 ft | 0 kts | 225° |
| 2026-04-26 08:15 | 17.97667 | 102.56837 | 559 ft | 0 kts | 225° |
| 2026-04-26 08:16 | 17.97672 | 102.56844 | 559 ft | 0 kts | 237° |
| 2026-04-26 08:16 | 17.97682 | 102.56854 | 559 ft | 2 kts | 212° |
| 2026-04-26 08:16 | 17.97695 | 102.56861 | 559 ft | 2 kts | 201° |
| 2026-04-26 08:16 | 17.97710 | 102.56866 | 559 ft | 2 kts | 188° |
| 2026-04-26 08:17 | 17.97725 | 102.56866 | 559 ft | 2 kts | 176° |
| 2026-04-26 08:17 | 17.97739 | 102.56863 | 559 ft | 2 kts | 163° |
| 2026-04-26 08:17 | 17.97753 | 102.56858 | 559 ft | 2 kts | 151° |
| 2026-04-26 08:17 | 17.97766 | 102.56849 | 559 ft | 1 kts | 139° |
| 2026-04-26 08:18 | 17.97771 | 102.56844 | 559 ft | 1 kts | 134° |
| 2026-04-26 08:18 | 17.97772 | 102.56843 | 559 ft | 0 kts | 134° |
| 2026-04-26 08:20 | 17.97764 | 102.56851 | 559 ft | 4 kts | 134° |
| 2026-04-26 08:20 | 17.97722 | 102.56896 | 559 ft | 12 kts | 135° |
| 2026-04-26 08:20 | 17.97652 | 102.56969 | 559 ft | 14 kts | 135° |
| 2026-04-26 08:21 | 17.97580 | 102.57044 | 560 ft | 16 kts | 136° |
| 2026-04-26 08:21 | 17.97496 | 102.57130 | 560 ft | 17 kts | 135° |
| 2026-04-26 08:21 | 17.97487 | 102.57229 | 559 ft | 15 kts | 45° |
| 2026-04-26 08:21 | 17.97585 | 102.57274 | 558 ft | 17 kts | 5° |
| 2026-04-26 08:22 | 17.97723 | 102.57280 | 555 ft | 21 kts | 2° |
| 2026-04-26 08:22 | 17.97872 | 102.57285 | 556 ft | 21 kts | 351° |
| 2026-04-26 08:22 | 17.97955 | 102.57231 | 556 ft | 10 kts | 317° |
| 2026-04-26 08:22 | 17.98060 | 102.57121 | 556 ft | 55 kts | 314° |
| 2026-04-26 08:23 | 17.98547 | 102.56614 | 556 ft | 139 kts | 315° |
| 2026-04-26 08:23 | 17.99323 | 102.55825 | 1104 ft | 162 kts | 317° |
| 2026-04-26 08:23 | 18.00084 | 102.55096 | 2182 ft | 149 kts | 311° |
| 2026-04-26 08:23 | 18.00649 | 102.54173 | 2601 ft | 165 kts | 284° |
| 2026-04-26 08:24 | 18.00787 | 102.52948 | 3107 ft | 172 kts | 263° |
| 2026-04-26 08:24 | 18.00412 | 102.51801 | 3766 ft | 176 kts | 229° |
| 2026-04-26 08:24 | 17.99358 | 102.51158 | 4422 ft | 173 kts | 195° |
| 2026-04-26 08:24 | 17.98229 | 102.51105 | 5141 ft | 174 kts | 164° |
| 2026-04-26 08:25 | 17.97061 | 102.51680 | 5309 ft | 196 kts | 154° |
| 2026-04-26 08:25 | 17.95746 | 102.51923 | 5926 ft | 201 kts | 194° |
| 2026-04-26 08:25 | 17.94371 | 102.51471 | 6150 ft | 230 kts | 196° |
| 2026-04-26 08:25 | 17.92694 | 102.50897 | 6127 ft | 261 kts | 198° |
| 2026-04-26 08:26 | 17.90991 | 102.50269 | 7034 ft | 266 kts | 198° |
| 2026-04-26 08:26 | 17.89200 | 102.49616 | 7628 ft | 280 kts | 197° |
| 2026-04-26 08:26 | 17.87344 | 102.48941 | 8417 ft | 287 kts | 197° |
| 2026-04-26 08:26 | 17.85469 | 102.48261 | 9188 ft | 293 kts | 197° |
| 2026-04-26 08:27 | 17.83509 | 102.47552 | 9957 ft | 299 kts | 197° |
| 2026-04-26 08:27 | 17.81485 | 102.46823 | 10313 ft | 320 kts | 197° |
| 2026-04-26 08:27 | 17.79369 | 102.46067 | 10892 ft | 330 kts | 197° |
| 2026-04-26 08:27 | 17.77175 | 102.45286 | 11550 ft | 337 kts | 197° |
| 2026-04-26 08:28 | 17.74942 | 102.44492 | 12214 ft | 343 kts | 197° |
| 2026-04-26 08:28 | 17.72682 | 102.43689 | 12936 ft | 345 kts | 197° |
| 2026-04-26 08:28 | 17.70415 | 102.42884 | 13629 ft | 349 kts | 197° |
| 2026-04-26 08:28 | 17.68125 | 102.42072 | 14305 ft | 352 kts | 197° |
| 2026-04-26 08:29 | 17.65783 | 102.41242 | 14979 ft | 355 kts | 197° |
| 2026-04-26 08:29 | 17.63452 | 102.40417 | 15628 ft | 358 kts | 197° |
| 2026-04-26 08:29 | 17.61085 | 102.39579 | 16265 ft | 361 kts | 197° |
| 2026-04-26 08:29 | 17.58722 | 102.38744 | 16878 ft | 364 kts | 197° |
| 2026-04-26 08:30 | 17.56322 | 102.37897 | 17478 ft | 367 kts | 197° |
| 2026-04-26 08:30 | 17.53890 | 102.37039 | 18062 ft | 370 kts | 197° |
| 2026-04-26 08:30 | 17.51467 | 102.36186 | 18631 ft | 373 kts | 197° |
| 2026-04-26 08:30 | 17.49000 | 102.35317 | 19191 ft | 375 kts | 197° |
| 2026-04-26 08:31 | 17.46478 | 102.34430 | 19751 ft | 378 kts | 196° |
| 2026-04-26 08:31 | 17.44007 | 102.33562 | 20282 ft | 381 kts | 196° |
| 2026-04-26 08:31 | 17.41479 | 102.32674 | 20802 ft | 383 kts | 196° |
| 2026-04-26 08:31 | 17.38975 | 102.31795 | 21297 ft | 386 kts | 196° |
| 2026-04-26 08:32 | 17.36404 | 102.30894 | 21784 ft | 388 kts | 196° |
| 2026-04-26 08:32 | 17.33853 | 102.30001 | 22252 ft | 391 kts | 196° |
| 2026-04-26 08:32 | 17.31288 | 102.29104 | 22707 ft | 393 kts | 196° |
| 2026-04-26 08:32 | 17.28674 | 102.28190 | 23155 ft | 395 kts | 196° |
| 2026-04-26 08:33 | 17.26047 | 102.27273 | 23592 ft | 398 kts | 195° |
| 2026-04-26 08:33 | 17.23435 | 102.26360 | 23864 ft | 396 kts | 195° |
| 2026-04-26 08:33 | 17.20823 | 102.25449 | 23880 ft | 399 kts | 195° |
| 2026-04-26 08:33 | 17.18191 | 102.24531 | 23884 ft | 402 kts | 195° |
| 2026-04-26 08:34 | 17.15507 | 102.23589 | 23886 ft | 406 kts | 197° |
| 2026-04-26 08:34 | 17.12942 | 102.22398 | 23896 ft | 409 kts | 201° |
| 2026-04-26 08:34 | 17.10275 | 102.21263 | 23888 ft | 411 kts | 200° |
| 2026-04-26 08:34 | 17.07676 | 102.20009 | 23885 ft | 415 kts | 204° |
| 2026-04-26 08:35 | 17.05092 | 102.18700 | 23879 ft | 417 kts | 203° |
| 2026-04-26 08:35 | 17.02434 | 102.17440 | 23877 ft | 419 kts | 202° |
| 2026-04-26 08:35 | 16.99836 | 102.16055 | 23875 ft | 422 kts | 208° |
| 2026-04-26 08:35 | 16.97255 | 102.14619 | 23872 ft | 423 kts | 205° |
| 2026-04-26 08:36 | 16.94647 | 102.13251 | 23887 ft | 425 kts | 205° |
| 2026-04-26 08:36 | 16.91973 | 102.11855 | 23875 ft | 426 kts | 205° |
| 2026-04-26 08:36 | 16.89333 | 102.10481 | 23877 ft | 428 kts | 205° |
| 2026-04-26 08:36 | 16.86676 | 102.09100 | 23879 ft | 429 kts | 205° |
| 2026-04-26 08:37 | 16.83944 | 102.07795 | 23882 ft | 429 kts | 201° |
| 2026-04-26 08:37 | 16.81202 | 102.06596 | 23883 ft | 430 kts | 201° |
| 2026-04-26 08:37 | 16.78447 | 102.05398 | 23884 ft | 431 kts | 201° |
| 2026-04-26 08:37 | 16.75694 | 102.04200 | 23885 ft | 432 kts | 201° |
| 2026-04-26 08:38 | 16.72907 | 102.02989 | 23885 ft | 432 kts | 201° |
| 2026-04-26 08:38 | 16.70128 | 102.01782 | 23885 ft | 433 kts | 201° |
| 2026-04-26 08:38 | 16.67374 | 102.00586 | 23885 ft | 434 kts | 201° |
| 2026-04-26 08:38 | 16.64587 | 101.99357 | 23885 ft | 434 kts | 203° |
| 2026-04-26 08:39 | 16.61878 | 101.98001 | 23885 ft | 435 kts | 204° |
| 2026-04-26 08:39 | 16.59141 | 101.96613 | 23880 ft | 436 kts | 205° |
| 2026-04-26 08:39 | 16.56422 | 101.95224 | 23881 ft | 436 kts | 205° |
| 2026-04-26 08:39 | 16.53736 | 101.93850 | 23878 ft | 436 kts | 205° |
| 2026-04-26 08:40 | 16.51005 | 101.92452 | 23878 ft | 437 kts | 205° |
| 2026-04-26 08:40 | 16.48293 | 101.91064 | 23876 ft | 437 kts | 205° |
| 2026-04-26 08:40 | 16.45563 | 101.89666 | 23875 ft | 437 kts | 205° |
| 2026-04-26 08:40 | 16.42823 | 101.88264 | 23873 ft | 438 kts | 205° |
| 2026-04-26 08:41 | 16.40126 | 101.86884 | 23872 ft | 438 kts | 205° |
| 2026-04-26 08:41 | 16.37398 | 101.85487 | 23870 ft | 438 kts | 205° |
| 2026-04-26 08:41 | 16.34664 | 101.84089 | 23868 ft | 438 kts | 205° |
| 2026-04-26 08:41 | 16.31941 | 101.82696 | 23867 ft | 439 kts | 205° |
| 2026-04-26 08:42 | 16.29207 | 101.81298 | 23866 ft | 439 kts | 205° |
| 2026-04-26 08:42 | 16.26449 | 101.79888 | 23865 ft | 439 kts | 205° |
| 2026-04-26 08:42 | 16.23723 | 101.78495 | 23861 ft | 439 kts | 205° |
| 2026-04-26 08:42 | 16.20990 | 101.77099 | 23862 ft | 439 kts | 205° |
| 2026-04-26 08:43 | 16.18258 | 101.75703 | 23860 ft | 439 kts | 205° |
| 2026-04-26 08:43 | 16.15496 | 101.74294 | 23859 ft | 439 kts | 205° |
| 2026-04-26 08:43 | 16.12767 | 101.72900 | 23861 ft | 440 kts | 205° |
| 2026-04-26 08:43 | 16.10027 | 101.71501 | 23859 ft | 440 kts | 205° |
| 2026-04-26 08:44 | 16.07271 | 101.70095 | 23860 ft | 440 kts | 205° |
| 2026-04-26 08:44 | 16.04545 | 101.68705 | 23859 ft | 440 kts | 205° |
| 2026-04-26 08:44 | 16.01783 | 101.67297 | 23860 ft | 440 kts | 205° |
| 2026-04-26 08:44 | 15.99045 | 101.65901 | 23861 ft | 440 kts | 205° |
| 2026-04-26 08:45 | 15.96307 | 101.64506 | 23860 ft | 440 kts | 205° |
| 2026-04-26 08:45 | 15.93571 | 101.63111 | 23861 ft | 440 kts | 205° |
| 2026-04-26 08:45 | 15.90826 | 101.61713 | 23858 ft | 440 kts | 205° |
| 2026-04-26 08:45 | 15.88091 | 101.60321 | 23857 ft | 440 kts | 205° |
| 2026-04-26 08:46 | 15.85340 | 101.58920 | 23859 ft | 440 kts | 205° |
| 2026-04-26 08:46 | 15.82610 | 101.57532 | 23859 ft | 440 kts | 205° |
| 2026-04-26 08:46 | 15.79871 | 101.56138 | 23858 ft | 440 kts | 205° |
| 2026-04-26 08:46 | 15.77098 | 101.54727 | 23858 ft | 440 kts | 205° |
| 2026-04-26 08:47 | 15.74357 | 101.53334 | 23859 ft | 440 kts | 205° |
| 2026-04-26 08:47 | 15.71631 | 101.51948 | 23859 ft | 440 kts | 205° |
| 2026-04-26 08:47 | 15.68879 | 101.50549 | 23859 ft | 440 kts | 205° |
| 2026-04-26 08:47 | 15.66160 | 101.49168 | 23859 ft | 440 kts | 205° |
| 2026-04-26 08:48 | 15.63424 | 101.47779 | 23860 ft | 440 kts | 205° |
| 2026-04-26 08:48 | 15.60687 | 101.46389 | 23859 ft | 440 kts | 205° |
| 2026-04-26 08:48 | 15.57918 | 101.44984 | 23859 ft | 440 kts | 205° |
| 2026-04-26 08:48 | 15.55188 | 101.43598 | 23859 ft | 440 kts | 205° |
| 2026-04-26 08:49 | 15.52441 | 101.42206 | 23860 ft | 440 kts | 205° |
| 2026-04-26 08:49 | 15.49729 | 101.40830 | 23860 ft | 440 kts | 205° |
| 2026-04-26 08:49 | 15.46967 | 101.39429 | 23860 ft | 440 kts | 205° |
| 2026-04-26 08:49 | 15.44236 | 101.38045 | 23860 ft | 440 kts | 205° |
| 2026-04-26 08:50 | 15.41509 | 101.36664 | 23860 ft | 440 kts | 205° |
| 2026-04-26 08:50 | 15.38738 | 101.35261 | 23860 ft | 440 kts | 205° |
| 2026-04-26 08:50 | 15.36022 | 101.33885 | 23856 ft | 439 kts | 205° |
| 2026-04-26 08:50 | 15.33273 | 101.32493 | 23857 ft | 439 kts | 205° |
| 2026-04-26 08:51 | 15.27797 | 101.29721 | 23857 ft | 439 kts | 205° |
| 2026-04-26 08:51 | 15.25084 | 101.28348 | 23857 ft | 439 kts | 205° |
| 2026-04-26 08:51 | 15.22310 | 101.26945 | 23857 ft | 439 kts | 205° |
| 2026-04-26 08:52 | 15.19579 | 101.25565 | 23858 ft | 439 kts | 205° |
| 2026-04-26 08:52 | 15.16857 | 101.24189 | 23857 ft | 439 kts | 205° |
| 2026-04-26 08:52 | 15.14124 | 101.22808 | 23858 ft | 439 kts | 205° |
| 2026-04-26 08:52 | 15.11390 | 101.21426 | 23857 ft | 438 kts | 205° |
| 2026-04-26 08:53 | 15.08684 | 101.20058 | 23829 ft | 421 kts | 205° |
| 2026-04-26 08:53 | 15.06147 | 101.18776 | 23825 ft | 403 kts | 204° |
| 2026-04-26 08:53 | 15.03633 | 101.17506 | 23843 ft | 399 kts | 204° |
| 2026-04-26 08:53 | 15.01132 | 101.16245 | 23844 ft | 399 kts | 204° |
| 2026-04-26 08:54 | 14.98623 | 101.14979 | 23845 ft | 399 kts | 204° |
| 2026-04-26 08:54 | 14.96137 | 101.13725 | 23847 ft | 400 kts | 204° |
| 2026-04-26 08:54 | 14.93615 | 101.12454 | 23848 ft | 400 kts | 204° |
| 2026-04-26 08:54 | 14.91128 | 101.11201 | 23849 ft | 400 kts | 204° |
| 2026-04-26 08:55 | 14.88713 | 101.09983 | 23549 ft | 389 kts | 204° |
| 2026-04-26 08:55 | 14.86250 | 101.08742 | 23029 ft | 378 kts | 204° |
| 2026-04-26 08:55 | 14.83877 | 101.07546 | 22580 ft | 382 kts | 204° |
| 2026-04-26 08:55 | 14.81447 | 101.06325 | 22079 ft | 390 kts | 205° |
| 2026-04-26 08:56 | 14.79204 | 101.04878 | 21464 ft | 384 kts | 220° |
| 2026-04-26 08:56 | 14.77945 | 101.03600 | 21089 ft | 378 kts | 229° |
| 2026-04-26 08:56 | 14.75888 | 101.00737 | 20322 ft | 367 kts | 240° |
| 2026-04-26 08:56 | 14.74775 | 100.98399 | 19869 ft | 362 kts | 250° |
| 2026-04-26 08:57 | 14.74073 | 100.95859 | 19454 ft | 374 kts | 261° |
| 2026-04-26 08:57 | 14.73749 | 100.93230 | 18964 ft | 364 kts | 266° |
| 2026-04-26 08:57 | 14.73524 | 100.90662 | 18478 ft | 354 kts | 267° |
| 2026-04-26 08:57 | 14.73322 | 100.88189 | 18038 ft | 345 kts | 268° |
| 2026-04-26 08:58 | 14.73121 | 100.85660 | 17652 ft | 360 kts | 268° |
| 2026-04-26 08:58 | 14.72916 | 100.83100 | 17176 ft | 353 kts | 268° |
| 2026-04-26 08:58 | 14.72715 | 100.80619 | 16734 ft | 343 kts | 268° |
| 2026-04-26 08:58 | 14.72519 | 100.78195 | 16322 ft | 335 kts | 268° |
| 2026-04-26 08:59 | 14.72323 | 100.75738 | 15953 ft | 350 kts | 268° |
| 2026-04-26 08:59 | 14.72124 | 100.73259 | 15488 ft | 342 kts | 268° |
| 2026-04-26 08:59 | 14.71928 | 100.70850 | 15057 ft | 332 kts | 268° |
| 2026-04-26 08:59 | 14.71738 | 100.68518 | 14666 ft | 328 kts | 268° |
| 2026-04-26 09:00 | 14.71547 | 100.66122 | 14315 ft | 341 kts | 268° |
| 2026-04-26 09:00 | 14.71350 | 100.63694 | 13872 ft | 331 kts | 268° |
| 2026-04-26 09:00 | 14.71161 | 100.61378 | 13478 ft | 321 kts | 268° |
| 2026-04-26 09:00 | 14.70975 | 100.59108 | 13099 ft | 311 kts | 268° |
| 2026-04-26 09:01 | 14.70593 | 100.56943 | 12852 ft | 314 kts | 248° |
| 2026-04-26 09:01 | 14.69258 | 100.55138 | 12901 ft | 322 kts | 222° |
| 2026-04-26 09:01 | 14.67392 | 100.53908 | 12857 ft | 322 kts | 202° |
| 2026-04-26 09:01 | 14.65203 | 100.53414 | 12627 ft | 324 kts | 179° |
| 2026-04-26 09:02 | 14.63006 | 100.53799 | 12252 ft | 316 kts | 163° |
| 2026-04-26 09:02 | 14.60909 | 100.54390 | 11843 ft | 310 kts | 163° |
| 2026-04-26 09:02 | 14.58882 | 100.54995 | 11441 ft | 304 kts | 162° |
| 2026-04-26 09:02 | 14.56866 | 100.55595 | 11041 ft | 302 kts | 163° |
| 2026-04-26 09:03 | 14.54841 | 100.56184 | 10638 ft | 301 kts | 164° |
| 2026-04-26 09:03 | 14.52835 | 100.56763 | 10237 ft | 300 kts | 164° |
| 2026-04-26 09:03 | 14.50838 | 100.57336 | 9813 ft | 299 kts | 165° |
| 2026-04-26 09:03 | 14.48845 | 100.57908 | 9360 ft | 297 kts | 165° |
| 2026-04-26 09:04 | 14.46877 | 100.58472 | 8911 ft | 295 kts | 165° |
| 2026-04-26 09:04 | 14.44914 | 100.59033 | 8560 ft | 290 kts | 166° |
| 2026-04-26 09:04 | 14.42988 | 100.59585 | 8227 ft | 284 kts | 166° |
| 2026-04-26 09:04 | 14.41104 | 100.60124 | 7897 ft | 280 kts | 166° |
| 2026-04-26 09:05 | 14.39242 | 100.60657 | 7567 ft | 276 kts | 167° |
| 2026-04-26 09:05 | 14.37409 | 100.61182 | 7263 ft | 272 kts | 167° |
| 2026-04-26 09:05 | 14.35601 | 100.61698 | 7016 ft | 270 kts | 167° |
| 2026-04-26 09:05 | 14.33813 | 100.62209 | 6758 ft | 265 kts | 167° |
| 2026-04-26 09:06 | 14.32038 | 100.62717 | 6463 ft | 263 kts | 167° |
| 2026-04-26 09:06 | 14.30287 | 100.63217 | 6160 ft | 260 kts | 168° |
| 2026-04-26 09:06 | 14.28557 | 100.63711 | 5858 ft | 258 kts | 168° |
| 2026-04-26 09:06 | 14.26843 | 100.64201 | 5555 ft | 255 kts | 168° |
| 2026-04-26 09:07 | 14.25152 | 100.64683 | 5254 ft | 253 kts | 168° |
| 2026-04-26 09:07 | 14.23470 | 100.65163 | 4952 ft | 251 kts | 168° |
| 2026-04-26 09:07 | 14.21806 | 100.65637 | 4651 ft | 249 kts | 168° |
| 2026-04-26 09:07 | 14.20135 | 100.66113 | 4346 ft | 247 kts | 168° |
| 2026-04-26 09:08 | 14.18498 | 100.66579 | 4045 ft | 245 kts | 168° |
| 2026-04-26 09:08 | 14.16882 | 100.67040 | 3733 ft | 240 kts | 168° |
| 2026-04-26 09:08 | 14.15284 | 100.67497 | 3422 ft | 234 kts | 169° |
| 2026-04-26 09:08 | 14.13746 | 100.67936 | 3115 ft | 228 kts | 169° |
| 2026-04-26 09:09 | 14.12246 | 100.68363 | 2810 ft | 223 kts | 169° |
| 2026-04-26 09:09 | 14.10757 | 100.68787 | 2501 ft | 219 kts | 169° |
| 2026-04-26 09:09 | 14.09323 | 100.69196 | 2348 ft | 206 kts | 169° |
| 2026-04-26 09:09 | 14.07970 | 100.69562 | 2357 ft | 202 kts | 176° |
| 2026-04-26 09:10 | 14.06682 | 100.69239 | 2394 ft | 191 kts | 216° |
| 2026-04-26 09:10 | 14.05590 | 100.68547 | 2346 ft | 182 kts | 211° |
| 2026-04-26 09:10 | 14.04521 | 100.67925 | 2358 ft | 175 kts | 212° |
| 2026-04-26 09:10 | 14.03459 | 100.67318 | 2348 ft | 171 kts | 211° |
| 2026-04-26 09:11 | 14.02430 | 100.66737 | 2253 ft | 170 kts | 211° |
| 2026-04-26 09:11 | 14.01430 | 100.66174 | 2022 ft | 159 kts | 211° |
| 2026-04-26 09:11 | 14.00490 | 100.65647 | 1833 ft | 150 kts | 210° |
| 2026-04-26 09:11 | 13.99600 | 100.65147 | 1611 ft | 145 kts | 210° |
| 2026-04-26 09:12 | 13.98718 | 100.64651 | 1406 ft | 143 kts | 210° |
| 2026-04-26 09:12 | 13.97849 | 100.64163 | 1211 ft | 142 kts | 210° |
| 2026-04-26 09:12 | 13.96977 | 100.63673 | 1017 ft | 142 kts | 209° |
| 2026-04-26 09:12 | 13.96114 | 100.63190 | 826 ft | 141 kts | 209° |
| 2026-04-26 09:13 | 13.95255 | 100.62708 | 636 ft | 141 kts | 208° |
| 2026-04-26 09:13 | 13.94401 | 100.62229 | 451 ft | 140 kts | 208° |
| 2026-04-26 09:13 | 13.93541 | 100.61747 | 263 ft | 140 kts | 208° |
| 2026-04-26 09:13 | 13.92701 | 100.61276 | 100 ft | 135 kts | 207° |
| 2026-04-26 09:14 | 13.91891 | 100.60825 | 15 ft | 125 kts | 208° |
| 2026-04-26 09:14 | 13.91355 | 100.60527 | 15 ft | 59 kts | 208° |
| 2026-04-26 09:14 | 13.91215 | 100.60445 | 15 ft | 5 kts | 216° |
| 2026-04-26 09:14 | 13.91133 | 100.60369 | 15 ft | 25 kts | 232° |
| 2026-04-26 09:15 | 13.91066 | 100.60246 | 15 ft | 11 kts | 241° |
| 2026-04-26 09:15 | 13.91029 | 100.60169 | 15 ft | 12 kts | 255° |
| 2026-04-26 09:15 | 13.91034 | 100.60080 | 15 ft | 11 kts | 248° |
| 2026-04-26 09:15 | 13.91001 | 100.60004 | 15 ft | 11 kts | 275° |
| 2026-04-26 09:16 | 13.91020 | 100.59972 | 15 ft | 0 kts | 348° |
| 2026-04-26 09:16 | 13.91039 | 100.59980 | 15 ft | 0 kts | 52° |
| 2026-04-26 09:16 | 13.91046 | 100.59987 | 15 ft | 7 kts | 41° |
| 2026-04-26 09:16 | 13.91074 | 100.60006 | 15 ft | 0 kts | 27° |
| 2026-04-26 09:17 | 13.91083 | 100.60010 | 15 ft | 1 kts | 27° |